Time;durP1;ratioP1;P1;durP2;ratioP2;P2;SDS_P1;SDS_P2;PMS_P1;PMS_P2;Temp;Humidity;BMP_temperature;BMP_pressure;BME280_temperature;BME280_humidity;BME280_pressure;Samples;Min_cycle;Max_cycle;Signal;HPM_P1;HPM_P2
2023/01/21 00:01:02;;;;;;;19.97;8.10;;;;;;;-0.94;100.00;101825.25;5026725;28;20132;-82
2023/01/21 00:03:29;;;;;;;15.33;7.07;;;;;;;-1.11;100.00;101823.63;4993351;28;20060;-82
2023/01/21 00:05:57;;;;;;;15.37;7.00;;;;;;;-1.06;100.00;101822.13;4993184;28;20049;-79
2023/01/21 00:08:24;;;;;;;13.67;6.90;;;;;;;-0.97;100.00;101810.47;5010826;28;20061;-80
2023/01/21 00:10:51;;;;;;;12.87;5.70;;;;;;;-1.01;100.00;101821.53;5028703;28;20050;-79
2023/01/21 00:13:17;;;;;;;13.13;6.57;;;;;;;-0.96;100.00;101824.31;4987184;28;20042;-79
2023/01/21 00:15:44;;;;;;;11.77;6.13;;;;;;;-0.88;100.00;101818.66;5003392;28;20042;-78
2023/01/21 00:18:11;;;;;;;13.87;6.20;;;;;;;-0.91;100.00;101818.53;5026057;28;20041;-80
2023/01/21 00:20:39;;;;;;;14.87;7.17;;;;;;;-1.04;100.00;101825.69;4993010;28;20044;-79
2023/01/21 00:23:06;;;;;;;16.33;5.77;;;;;;;-0.99;100.00;101817.28;5011391;28;20099;-79
2023/01/21 00:25:32;;;;;;;9.97;5.70;;;;;;;-1.04;100.00;101825.69;5001584;28;20037;-79
2023/01/21 00:28:00;;;;;;;11.17;5.40;;;;;;;-1.06;100.00;101827.31;5023655;28;20037;-79
2023/01/21 00:30:26;;;;;;;11.07;5.13;;;;;;;-0.91;100.00;101825.41;5007661;28;20050;-80
2023/01/21 00:32:53;;;;;;;12.93;6.67;;;;;;;-0.92;100.00;101829.72;5004892;28;20041;-80
2023/01/21 00:35:20;;;;;;;15.63;6.80;;;;;;;-0.89;100.00;101831.56;4994451;28;20466;-80
2023/01/21 00:37:46;;;;;;;13.20;5.80;;;;;;;-0.92;100.00;101824.53;5004096;28;20045;-79
2023/01/21 00:40:13;;;;;;;9.70;6.03;;;;;;;-0.99;100.00;101825.06;5008694;28;20564;-79
2023/01/21 00:42:40;;;;;;;11.40;5.87;;;;;;;-1.03;100.00;101840.41;4991507;28;20042;-80
2023/01/21 00:45:07;;;;;;;11.60;5.33;;;;;;;-1.01;100.00;101831.00;4999367;28;20050;-79
2023/01/21 00:47:34;;;;;;;11.30;5.73;;;;;;;-0.96;100.00;101840.75;5026789;28;20060;-79
2023/01/21 00:50:01;;;;;;;11.80;5.00;;;;;;;-0.91;100.00;101841.00;5006669;28;20061;-80
2023/01/21 00:52:30;;;;;;;10.43;4.67;;;;;;;-1.08;100.00;101841.94;5007498;28;20433;-79
2023/01/21 00:54:57;;;;;;;8.87;5.10;;;;;;;-1.00;100.00;101849.25;5009902;28;20038;-79
2023/01/21 00:57:23;;;;;;;10.13;5.23;;;;;;;-0.95;100.00;101850.31;4994676;28;20045;-79
2023/01/21 00:59:52;;;;;;;14.17;5.57;;;;;;;-1.06;100.00;101848.06;5022581;28;20042;-79
2023/01/21 01:02:18;;;;;;;11.03;4.70;;;;;;;-0.97;100.00;101848.47;4995282;28;20501;-79
2023/01/21 01:04:45;;;;;;;13.93;6.23;;;;;;;-0.90;100.00;101850.53;5031441;28;20434;-79
2023/01/21 01:07:12;;;;;;;14.03;5.33;;;;;;;-0.93;100.00;101851.25;4994684;28;20734;-80
2023/01/21 01:09:39;;;;;;;13.33;6.10;;;;;;;-0.98;100.00;101854.50;5015870;28;20568;-80
2023/01/21 01:12:05;;;;;;;12.03;6.10;;;;;;;-0.71;100.00;101850.53;5001797;28;20052;-79
2023/01/21 01:14:32;;;;;;;9.30;4.77;;;;;;;-0.86;100.00;101850.72;5016676;28;20045;-79
2023/01/21 01:16:59;;;;;;;10.30;5.13;;;;;;;-1.01;100.00;101856.94;5006340;28;20056;-80
2023/01/21 01:19:25;;;;;;;9.33;4.67;;;;;;;-1.00;100.00;101845.75;5012232;28;20136;-80
2023/01/21 01:21:52;;;;;;;14.10;6.43;;;;;;;-0.94;100.00;101856.38;4998828;28;20045;-80
2023/01/21 01:24:19;;;;;;;11.13;5.53;;;;;;;-0.97;100.00;101864.03;4999440;28;20041;-80
2023/01/21 01:26:45;;;;;;;9.47;5.03;;;;;;;-1.00;100.00;101862.22;4997374;28;20049;-79
2023/01/21 01:29:12;;;;;;;10.97;5.07;;;;;;;-1.05;100.00;101849.84;5018928;28;20648;-79
2023/01/21 01:31:39;;;;;;;11.07;5.17;;;;;;;-1.01;100.00;101857.84;4998318;28;20079;-79
2023/01/21 01:34:05;;;;;;;10.03;4.70;;;;;;;-1.00;100.00;101858.72;4996971;28;20042;-79
2023/01/21 01:36:32;;;;;;;11.20;6.13;;;;;;;-0.91;100.00;101861.75;5029752;28;20042;-79
2023/01/21 01:38:59;;;;;;;16.63;5.10;;;;;;;-1.01;100.00;101854.34;4999276;28;20041;-79
2023/01/21 01:41:28;;;;;;;9.33;5.20;;;;;;;-1.08;100.00;101853.19;4999445;28;20043;-79
2023/01/21 01:44:25;;;;;;;10.50;5.03;;;;;;;-1.05;100.00;101855.91;4999122;28;20099;-79
2023/01/21 01:46:53;;;;;;;9.43;4.63;;;;;;;-1.18;100.00;101859.66;5007795;28;20052;-79
2023/01/21 01:49:21;;;;;;;8.80;4.50;;;;;;;-1.24;100.00;101859.38;5013176;28;20048;-79
2023/01/21 01:51:53;;;;;;;10.77;5.50;;;;;;;-1.15;100.00;101858.91;5013601;28;20513;-79
2023/01/21 01:54:27;;;;;;;11.60;5.00;;;;;;;-1.27;100.00;101854.03;5012368;28;20050;-79
2023/01/21 01:56:57;;;;;;;8.18;4.78;;;;;;;-1.38;100.00;101865.59;4994761;28;20041;-80
2023/01/21 01:59:24;;;;;;;12.93;4.83;;;;;;;-1.43;100.00;101865.41;5000301;28;20052;-80
2023/01/21 02:01:51;;;;;;;9.37;4.87;;;;;;;-1.53;100.00;101870.94;4989477;28;20045;-78
2023/01/21 02:04:25;;;;;;;9.97;5.00;;;;;;;-1.67;100.00;101872.00;5017250;28;20049;-79
2023/01/21 02:06:53;;;;;;;9.38;4.53;;;;;;;-1.56;100.00;101875.09;5030168;28;20033;-79
2023/01/21 02:09:20;;;;;;;6.87;4.03;;;;;;;-1.58;100.00;101876.75;5007682;28;20054;-79
2023/01/21 02:11:47;;;;;;;8.67;4.70;;;;;;;-1.79;100.00;101876.56;4992022;28;20073;-79
2023/01/21 02:14:14;;;;;;;13.83;5.50;;;;;;;-1.78;100.00;101874.06;5015364;28;20065;-78
2023/01/21 02:16:49;;;;;;;8.87;4.47;;;;;;;-1.74;100.00;101870.81;5004480;28;20037;-78
2023/01/21 02:19:37;;;;;;;9.40;4.77;;;;;;;-1.77;100.00;101875.84;5012428;28;20049;-79
2023/01/21 02:22:25;;;;;;;12.23;4.87;;;;;;;-1.92;100.00;101874.22;5012016;28;20438;-79
2023/01/21 02:24:55;;;;;;;10.17;4.27;;;;;;;-1.97;100.00;101873.97;5012572;28;20096;-79
2023/01/21 02:27:46;;;;;;;10.07;4.53;;;;;;;-2.04;100.00;101888.31;5015704;28;20045;-79
2023/01/21 02:30:29;;;;;;;8.07;4.00;;;;;;;-2.17;100.00;101883.34;5011261;28;20041;-78
2023/01/21 02:32:59;;;;;;;11.67;4.63;;;;;;;-2.14;100.00;101885.19;5020561;28;20091;-79
2023/01/21 02:35:40;;;;;;;8.03;4.03;;;;;;;-2.12;100.00;101893.91;4999748;28;20037;-78
2023/01/21 02:38:16;;;;;;;10.10;4.73;;;;;;;-2.27;100.00;101897.53;5016300;28;20103;-78
2023/01/21 02:40:49;;;;;;;9.83;4.47;;;;;;;-2.10;100.00;101894.88;5025908;28;20087;-78
2023/01/21 02:43:31;;;;;;;11.27;4.20;;;;;;;-2.33;100.00;101897.22;5010161;28;20465;-78
2023/01/21 02:46:16;;;;;;;10.20;4.07;;;;;;;-2.34;100.00;101899.72;5027288;28;20052;-78
2023/01/21 02:48:56;;;;;;;8.33;3.80;;;;;;;-2.37;100.00;101909.91;5012604;28;20045;-78
2023/01/21 02:51:23;;;;;;;8.97;4.00;;;;;;;-2.44;100.00;101898.34;5030868;28;20042;-78
2023/01/21 02:53:50;;;;;;;9.53;4.40;;;;;;;-2.49;100.00;101905.00;5007685;28;20503;-78
2023/01/21 02:56:20;;;;;;;12.17;5.23;;;;;;;-2.50;100.00;101905.81;5032668;28;20049;-79
2023/01/21 02:58:54;;;;;;;8.77;4.50;;;;;;;-2.43;100.00;101914.78;5027133;28;20037;-79
2023/01/21 03:01:49;;;;;;;9.90;4.75;;;;;;;-2.24;100.00;101920.09;5031003;28;20514;-79
2023/01/21 03:04:45;;;;;;;12.33;4.60;;;;;;;-2.34;100.00;101913.56;5012549;28;20490;-79
2023/01/21 03:07:21;;;;;;;11.53;4.77;;;;;;;-2.23;100.00;101915.78;5014621;28;20050;-79
2023/01/21 03:09:48;;;;;;;9.87;4.90;;;;;;;-2.25;100.00;101904.47;5010362;28;20092;-79
2023/01/21 03:12:38;;;;;;;9.93;4.97;;;;;;;-2.28;100.00;101903.50;5016646;28;20072;-80
2023/01/21 03:18:29;;;;;;;9.37;4.77;;;;;;;-2.21;100.00;101902.09;5007702;28;20045;-82
2023/01/21 03:20:59;;;;;;;8.60;3.90;;;;;;;-2.34;100.00;101912.66;5029572;28;20037;-82
2023/01/21 03:23:30;;;;;;;9.70;5.03;;;;;;;-2.31;100.00;101913.69;5027210;28;20046;-81
2023/01/21 03:25:57;;;;;;;9.17;4.87;;;;;;;-2.20;100.00;101911.66;4996785;28;20056;-81
2023/01/21 03:28:28;;;;;;;9.60;4.30;;;;;;;-2.29;100.00;101922.41;5013489;28;20103;-81
2023/01/21 03:31:04;;;;;;;9.57;4.47;;;;;;;-2.42;100.00;101932.97;4992229;28;20446;-81
2023/01/21 03:33:35;;;;;;;8.47;4.03;;;;;;;-2.43;100.00;101930.31;4986995;28;20440;-80
2023/01/21 03:36:07;;;;;;;8.30;4.57;;;;;;;-2.34;100.00;101931.66;5002817;28;20060;-81
2023/01/21 03:38:36;;;;;;;8.37;4.57;;;;;;;-2.43;100.00;101923.44;4989034;28;20045;-81
2023/01/21 03:41:07;;;;;;;8.17;4.33;;;;;;;-2.36;100.00;101933.25;5013403;28;20041;-81
2023/01/21 03:43:34;;;;;;;9.07;4.30;;;;;;;-2.30;100.00;101940.47;4994863;28;20042;-82
2023/01/21 03:46:19;;;;;;;8.33;3.47;;;;;;;-2.32;100.00;101940.41;5009907;28;20046;-82
2023/01/21 03:48:52;;;;;;;9.43;4.43;;;;;;;-2.45;100.00;101931.91;5022671;28;20038;-82
2023/01/21 03:51:21;;;;;;;10.43;5.23;;;;;;;-2.41;100.00;101929.56;5003484;28;20496;-81
2023/01/21 03:53:58;;;;;;;14.53;4.80;;;;;;;-2.52;100.00;101930.72;4986188;28;20041;-81
2023/01/21 03:56:25;;;;;;;9.67;4.20;;;;;;;-2.55;100.00;101925.34;4992457;28;20037;-82
2023/01/21 03:58:52;;;;;;;9.30;4.43;;;;;;;-2.52;100.00;101934.97;4993190;28;20041;-82
2023/01/21 04:01:19;;;;;;;10.80;4.47;;;;;;;-2.64;100.00;101930.03;5094693;23;20045;-82
2023/01/21 04:03:46;;;;;;;9.50;4.07;;;;;;;-2.58;100.00;101932.97;5030437;28;20041;-83
2023/01/21 04:06:20;;;;;;;10.40;4.23;;;;;;;-2.55;100.00;101930.53;5031419;28;20509;-81
2023/01/21 04:08:47;;;;;;;;;;;;;;;-2.65;100.00;101930.84;5015992;28;20061;-82
2023/01/21 04:11:14;;;;;;;8.80;4.20;;;;;;;-2.71;100.00;101931.41;5017147;28;20475;-85
2023/01/21 04:13:41;;;;;;;6.83;3.80;;;;;;;-2.58;100.00;101941.63;4995865;28;20133;-83
2023/01/21 04:16:08;;;;;;;8.27;4.07;;;;;;;-2.58;100.00;101943.31;5010779;28;20049;-80
2023/01/21 04:18:34;;;;;;;8.50;4.23;;;;;;;-2.65;100.00;101933.44;5013660;28;20077;-82
2023/01/21 04:21:01;;;;;;;9.57;4.37;;;;;;;-2.51;100.00;101929.91;4995721;28;20049;-82
2023/01/21 04:23:28;;;;;;;11.20;3.97;;;;;;;-2.58;100.00;101928.69;5015082;28;20037;-81
2023/01/21 04:25:54;;;;;;;8.37;4.17;;;;;;;-2.68;100.00;101930.72;5044019;28;20029;-81
2023/01/21 04:28:21;;;;;;;9.83;4.47;;;;;;;-2.67;100.00;101930.78;5023774;28;20045;-82
2023/01/21 04:30:48;;;;;;;7.83;4.20;;;;;;;-2.66;100.00;101929.09;5007734;28;20045;-81
2023/01/21 04:33:15;;;;;;;8.83;4.40;;;;;;;-2.73;100.00;101929.56;5014001;28;20088;-82
2023/01/21 04:35:42;;;;;;;10.00;4.20;;;;;;;-2.72;100.00;101926.16;5027614;28;20108;-82
2023/01/21 04:38:09;;;;;;;10.07;4.60;;;;;;;-2.69;100.00;101921.13;5016256;28;20513;-85
2023/01/21 04:40:35;;;;;;;7.70;4.00;;;;;;;-2.77;100.00;101937.97;4995601;28;20037;-84
2023/01/21 04:43:02;;;;;;;8.80;4.30;;;;;;;-2.75;100.00;101938.94;5012684;28;20042;-80
2023/01/21 04:45:29;;;;;;;10.37;4.90;;;;;;;-2.81;100.00;101933.44;5017992;28;20048;-82
2023/01/21 04:47:56;;;;;;;8.80;4.07;;;;;;;-2.91;100.00;101934.63;4999003;28;20054;-80
2023/01/21 04:50:22;;;;;;;10.00;4.70;;;;;;;-3.00;100.00;101937.63;5018625;28;20490;-81
2023/01/21 04:52:49;;;;;;;11.07;5.03;;;;;;;-3.08;100.00;101941.47;5006815;28;20096;-82
2023/01/21 04:55:16;;;;;;;9.83;4.43;;;;;;;-3.02;100.00;101935.75;5002417;28;20052;-80
2023/01/21 04:57:42;;;;;;;9.07;4.37;;;;;;;-3.07;100.00;101950.13;5000925;28;20051;-81
2023/01/21 05:00:09;;;;;;;8.83;5.10;;;;;;;-3.13;100.00;101946.38;5032815;28;20038;-80
2023/01/21 05:02:36;;;;;;;11.40;4.50;;;;;;;-3.17;100.00;101946.13;5015957;28;20073;-81
2023/01/21 05:05:03;;;;;;;9.97;4.43;;;;;;;-3.00;100.00;101945.38;5001761;28;20048;-80
2023/01/21 05:07:30;;;;;;;10.50;4.60;;;;;;;-2.92;100.00;101958.72;5001953;28;20041;-84
2023/01/21 05:09:56;;;;;;;8.83;4.50;;;;;;;-2.93;100.00;101960.41;5000550;28;20033;-83
2023/01/21 05:12:23;;;;;;;9.00;3.83;;;;;;;-2.90;100.00;101952.81;5015423;28;20079;-80
2023/01/21 05:14:53;;;;;;;19.33;4.67;;;;;;;-2.78;100.00;101959.44;5016261;28;20033;-81
2023/01/21 05:17:20;;;;;;;8.90;4.00;;;;;;;-2.85;100.00;101966.00;5000581;28;20075;-84
2023/01/21 05:19:47;;;;;;;10.30;4.23;;;;;;;-2.87;100.00;101973.66;4997844;28;20040;-81
2023/01/21 05:22:14;;;;;;;8.77;4.03;;;;;;;-2.71;100.00;101971.91;5034665;28;20693;-81
2023/01/21 05:24:40;;;;;;;9.50;4.67;;;;;;;-2.67;100.00;101976.47;5014445;28;20483;-81
2023/01/21 05:27:07;;;;;;;8.73;4.10;;;;;;;-2.66;100.00;101983.41;5030373;28;20045;-80
2023/01/21 05:29:34;;;;;;;10.93;4.70;;;;;;;-2.66;100.00;101983.41;5030965;28;20041;-81
2023/01/21 05:32:00;;;;;;;9.20;4.67;;;;;;;-2.72;100.00;101981.38;4997758;28;20410;-81
2023/01/21 05:34:27;;;;;;;11.23;5.10;;;;;;;-2.66;100.00;101986.88;5023351;28;20128;-80
2023/01/21 05:36:54;;;;;;;8.90;5.43;;;;;;;-2.58;100.00;101983.00;5016766;28;20038;-80
2023/01/21 05:39:20;;;;;;;12.53;5.83;;;;;;;-2.57;100.00;101991.66;5027358;28;20037;-84
2023/01/21 05:41:47;;;;;;;9.30;4.30;;;;;;;-2.53;100.00;101995.28;5036800;28;20038;-81
2023/01/21 05:44:14;;;;;;;10.43;4.70;;;;;;;-2.66;100.00;102010.16;5030348;28;20406;-81
2023/01/21 05:46:43;;;;;;;10.20;5.40;;;;;;;-2.47;100.00;102006.88;5006636;28;20045;-83
2023/01/21 05:49:09;;;;;;;10.50;4.93;;;;;;;-2.47;100.00;101998.22;5000399;28;20104;-81
2023/01/21 05:51:36;;;;;;;11.70;5.20;;;;;;;-2.34;100.00;101998.97;5014471;28;20041;-80
2023/01/21 05:54:03;;;;;;;10.20;4.53;;;;;;;-2.20;100.00;101999.66;5004809;28;20034;-82
2023/01/21 05:56:29;;;;;;;11.33;4.80;;;;;;;-2.19;100.00;101996.25;5042288;28;20037;-81
2023/01/21 05:58:56;;;;;;;11.80;5.20;;;;;;;-2.15;100.00;102006.00;5007002;28;20045;-82
2023/01/21 06:01:23;;;;;;;16.30;7.43;;;;;;;-1.89;100.00;102009.03;5011995;28;20057;-81
2023/01/21 06:03:50;;;;;;;11.60;5.43;;;;;;;-1.85;100.00;102021.31;5001493;28;20041;-81
2023/01/21 06:06:16;;;;;;;13.50;6.57;;;;;;;-1.74;100.00;102021.09;5015351;28;20037;-83
2023/01/21 06:08:43;;;;;;;16.70;7.77;;;;;;;-1.73;100.00;102035.81;5015642;28;20034;-82
2023/01/21 06:11:09;;;;;;;16.10;8.23;;;;;;;-1.49;100.00;102022.31;5008365;28;20060;-84
2023/01/21 06:13:36;;;;;;;21.23;10.30;;;;;;;-1.29;100.00;102037.16;4997016;28;20048;-82
2023/01/21 06:16:03;;;;;;;18.37;8.73;;;;;;;-1.01;100.00;102038.50;5015206;28;20034;-81
2023/01/21 06:18:30;;;;;;;22.40;10.20;;;;;;;-0.96;100.00;102034.44;5028763;28;20441;-83
2023/01/21 06:20:59;;;;;;;27.13;10.60;;;;;;;-0.79;100.00;102048.22;4996011;28;20042;-81
2023/01/21 06:23:26;;;;;;;19.37;9.23;;;;;;;-0.73;100.00;102052.00;5031211;28;20490;-82
2023/01/21 06:25:53;;;;;;;23.53;9.80;;;;;;;-0.63;100.00;102045.53;4999654;28;20095;-81
2023/01/21 06:28:19;;;;;;;22.13;10.47;;;;;;;-0.60;100.00;102043.06;5016162;28;20463;-81
2023/01/21 06:30:46;;;;;;;20.93;10.53;;;;;;;-0.61;100.00;102049.94;4996260;28;20061;-83
2023/01/21 06:33:13;;;;;;;21.77;9.93;;;;;;;-0.57;100.00;102044.09;5014790;28;20049;-81
2023/01/21 06:35:39;;;;;;;19.93;10.53;;;;;;;-0.49;100.00;102060.03;4986289;28;20405;-82
2023/01/21 06:38:06;;;;;;;21.53;10.93;;;;;;;-0.46;100.00;102054.97;5014575;28;20041;-83
2023/01/21 06:40:33;;;;;;;19.50;9.30;;;;;;;-0.48;100.00;102054.03;5010902;28;20438;-81
2023/01/21 06:43:00;;;;;;;17.47;9.27;;;;;;;-0.58;100.00;102054.44;5013304;28;20045;-80
2023/01/21 06:45:27;;;;;;;19.47;9.50;;;;;;;-0.57;100.00;102058.78;4993805;28;20053;-84
2023/01/21 06:47:53;;;;;;;20.93;10.57;;;;;;;-0.50;100.00;102071.25;5029766;28;20545;-81
2023/01/21 06:50:20;;;;;;;20.23;9.33;;;;;;;-0.50;100.00;102066.06;5006655;28;20045;-80
2023/01/21 06:52:47;;;;;;;21.60;11.20;;;;;;;-0.40;100.00;102085.53;5027997;28;20525;-82
2023/01/21 06:55:15;;;;;;;18.27;10.07;;;;;;;-0.41;100.00;102071.69;5010486;28;20045;-81
2023/01/21 06:57:42;;;;;;;22.17;11.40;;;;;;;-0.43;100.00;102077.59;4993979;28;20037;-81
2023/01/21 07:00:10;;;;;;;23.97;11.73;;;;;;;-0.47;100.00;102080.88;5025848;28;20041;-81
2023/01/21 07:02:39;;;;;;;23.07;12.90;;;;;;;-0.50;100.00;102085.94;5076545;23;20049;-82
2023/01/21 07:05:06;;;;;;;17.73;9.37;;;;;;;-0.45;100.00;102079.22;5146239;22;20040;-84
2023/01/21 07:07:33;;;;;;;24.07;11.80;;;;;;;-0.51;100.00;102084.13;5076390;28;20044;-84
2023/01/21 07:10:00;;;;;;;28.00;11.57;;;;;;;-0.47;100.00;102086.06;5062117;28;20512;-83
2023/01/21 07:12:27;;;;;;;24.47;11.63;;;;;;;-0.57;100.00;102089.94;5067730;28;20040;-84
2023/01/21 07:14:53;;;;;;;20.50;10.97;;;;;;;-0.57;100.00;102096.03;5053518;28;20037;-83
2023/01/21 07:17:21;;;;;;;23.43;11.47;;;;;;;-0.68;100.00;102089.41;5057357;28;20033;-84
2023/01/21 07:19:48;;;;;;;24.00;12.23;;;;;;;-0.68;100.00;102094.59;5040425;28;20040;-85
2023/01/21 07:22:15;;;;;;;24.17;11.23;;;;;;;-0.72;100.00;102099.59;5054062;28;20631;-84
2023/01/21 07:24:42;;;;;;;28.43;12.40;;;;;;;-0.64;100.00;102103.44;5039474;28;20041;-83
2023/01/21 07:27:09;;;;;;;22.77;11.27;;;;;;;-0.69;100.00;102105.81;5047644;28;20036;-84
2023/01/21 07:29:36;;;;;;;28.63;12.77;;;;;;;-0.69;100.00;102092.81;5031688;28;20471;-81
2023/01/21 07:32:03;;;;;;;26.23;12.43;;;;;;;-0.66;100.00;102089.50;5033005;28;20140;-83
2023/01/21 07:34:30;;;;;;;33.30;14.47;;;;;;;-0.75;100.00;102086.47;5036809;28;20047;-81
2023/01/21 07:36:57;;;;;;;27.20;12.40;;;;;;;-0.81;100.00;102084.47;5056416;28;20495;-83
2023/01/21 07:39:24;;;;;;;29.37;12.53;;;;;;;-0.81;100.00;102076.69;5061376;28;20124;-83
2023/01/21 07:41:50;;;;;;;34.17;14.33;;;;;;;-0.88;100.00;102079.78;5059468;28;20066;-82
2023/01/21 07:44:17;;;;;;;36.10;14.27;;;;;;;-0.97;100.00;102081.94;5054986;28;20043;-82
2023/01/21 07:46:44;;;;;;;30.47;13.33;;;;;;;-1.01;100.00;102080.91;5049943;28;20047;-83
2023/01/21 07:49:16;;;;;;;28.00;12.23;;;;;;;-1.04;100.00;102082.44;5042789;28;20044;-84
2023/01/21 07:51:44;;;;;;;26.93;12.97;;;;;;;-1.08;100.00;102088.31;5041786;28;20036;-83
2023/01/21 07:54:11;;;;;;;33.30;14.27;;;;;;;-1.04;100.00;102082.44;5045112;28;20046;-82
2023/01/21 07:56:38;;;;;;;33.17;16.97;;;;;;;-1.10;100.00;102087.31;5047894;28;20036;-83
2023/01/21 07:59:05;;;;;;;35.60;16.47;;;;;;;-1.07;100.00;102098.75;5052057;28;20090;-83
2023/01/21 08:01:32;;;;;;;30.13;14.97;;;;;;;-1.08;100.00;102096.09;5036270;28;20497;-83
2023/01/21 08:03:59;;;;;;;30.20;13.27;;;;;;;-1.16;100.00;102083.63;5058934;28;20036;-82
2023/01/21 08:06:26;;;;;;;26.00;13.40;;;;;;;-1.24;100.00;102091.84;5037531;28;20489;-83
2023/01/21 08:08:53;;;;;;;27.17;13.03;;;;;;;-1.21;100.00;102087.69;5054630;28;20052;-82
2023/01/21 08:11:20;;;;;;;31.20;13.63;;;;;;;-1.27;100.00;102079.59;5070331;28;20041;-81
2023/01/21 08:13:48;;;;;;;29.60;13.50;;;;;;;-1.20;100.00;102073.00;5052964;28;20037;-83
2023/01/21 08:16:15;;;;;;;28.07;12.73;;;;;;;-1.05;100.00;102083.25;5047513;28;20037;-82
2023/01/21 08:18:42;;;;;;;29.57;13.67;;;;;;;-1.09;100.00;102073.53;5039416;28;20505;-82
2023/01/21 08:21:08;;;;;;;31.17;13.90;;;;;;;-1.00;100.00;102079.19;5055843;28;20070;-82
2023/01/21 08:23:35;;;;;;;26.93;13.53;;;;;;;-1.00;100.00;102072.31;5038410;28;20041;-82
2023/01/21 08:26:03;;;;;;;28.47;12.93;;;;;;;-0.91;100.00;102064.97;5054249;28;20079;-81
2023/01/21 08:28:29;;;;;;;29.40;12.83;;;;;;;-0.96;100.00;102063.84;5037162;28;20048;-82
2023/01/21 08:31:08;;;;;;;25.90;12.60;;;;;;;-0.75;100.00;102071.78;5038289;28;20094;-82
2023/01/21 08:33:35;;;;;;;25.67;12.03;;;;;;;-0.78;100.00;102065.53;5048373;28;20044;-81
2023/01/21 08:36:04;;;;;;;28.47;13.13;;;;;;;-0.74;100.00;102064.91;5042049;28;20039;-83
2023/01/21 08:38:32;;;;;;;22.90;11.53;;;;;;;-0.81;100.00;102053.31;5070982;28;20032;-80
2023/01/21 08:40:59;;;;;;;24.40;10.93;;;;;;;-0.63;100.00;102056.78;5045725;28;20048;-81
2023/01/21 08:43:26;;;;;;;24.33;12.03;;;;;;;-0.60;100.00;102072.50;5042093;28;20486;-81
2023/01/21 08:45:55;;;;;;;22.53;10.23;;;;;;;-0.50;100.00;102076.44;5067044;28;20091;-80
2023/01/21 08:48:22;;;;;;;21.23;10.70;;;;;;;-0.44;100.00;102065.44;5065807;28;20119;-81
2023/01/21 08:50:49;;;;;;;21.20;10.07;;;;;;;-0.52;100.00;102066.78;5051060;28;20493;-80
2023/01/21 08:53:15;;;;;;;25.13;10.27;;;;;;;-0.44;100.00;102070.63;5030746;28;20135;-81
2023/01/21 08:55:42;;;;;;;21.83;9.70;;;;;;;-0.36;100.00;102066.69;5065743;28;20035;-81
2023/01/21 08:58:09;;;;;;;19.37;10.43;;;;;;;-0.41;100.00;102060.41;5037129;28;20440;-81
2023/01/21 09:00:36;;;;;;;21.90;10.00;;;;;;;-0.35;100.00;102053.75;5052613;28;20040;-84
2023/01/21 09:03:03;;;;;;;20.63;9.87;;;;;;;-0.28;100.00;102063.63;5035491;28;20040;-84
2023/01/21 09:05:30;;;;;;;19.20;9.33;;;;;;;-0.20;100.00;102070.88;5036707;28;20091;-82
2023/01/21 09:07:56;;;;;;;20.00;9.53;;;;;;;-0.12;100.00;102062.59;5031727;28;20056;-82
2023/01/21 09:13:09;;;;;;;20.03;9.73;;;;;;;-0.07;100.00;102053.31;5051256;28;20047;-82
2023/01/21 09:15:38;;;;;;;17.60;8.40;;;;;;;-0.13;100.00;102047.84;5044067;28;20551;-79
2023/01/21 09:18:05;;;;;;;15.40;9.13;;;;;;;-0.09;100.00;102054.06;5055243;28;20039;-83
2023/01/21 09:20:32;;;;;;;16.33;9.47;;;;;;;-0.10;100.00;102054.88;5056952;28;20059;-80
2023/01/21 09:22:58;;;;;;;16.30;8.73;;;;;;;-0.07;100.00;102062.84;5074498;28;20551;-81
2023/01/21 09:25:25;;;;;;;15.37;8.13;;;;;;;0.07;100.00;102066.03;5057576;28;20067;-82
2023/01/21 09:27:52;;;;;;;18.93;9.70;;;;;;;-0.02;100.00;102067.38;5054100;28;20044;-81
2023/01/21 09:30:19;;;;;;;18.33;8.53;;;;;;;0.13;100.00;102063.72;5070303;28;20029;-79
2023/01/21 09:32:45;;;;;;;18.90;9.63;;;;;;;0.11;100.00;102073.16;5057056;28;20491;-81
2023/01/21 09:35:12;;;;;;;17.03;9.17;;;;;;;0.15;100.00;102070.75;5053619;28;20502;-80
2023/01/21 09:37:39;;;;;;;17.00;8.87;;;;;;;0.17;100.00;102074.31;5038084;28;20204;-81
2023/01/21 09:40:12;;;;;;;16.80;8.73;;;;;;;0.32;100.00;102068.88;5073627;28;20445;-79
2023/01/21 09:42:41;;;;;;;16.90;8.60;;;;;;;0.34;100.00;102077.66;5040182;28;20040;-79
2023/01/21 09:45:12;;;;;;;16.43;7.60;;;;;;;0.39;100.00;102073.53;5057601;28;20571;-81
2023/01/21 09:47:41;;;;;;;15.93;8.70;;;;;;;0.36;100.00;102075.13;5047216;28;20068;-82
2023/01/21 09:50:21;;;;;;;15.63;8.20;;;;;;;0.36;100.00;102076.00;5056970;28;20142;-82
2023/01/21 09:52:53;;;;;;;16.97;9.10;;;;;;;0.37;100.00;102075.19;5056917;28;20045;-82
2023/01/21 09:55:38;;;;;;;16.23;8.60;;;;;;;0.42;100.00;102083.16;5074583;28;20041;-82
2023/01/21 09:58:22;;;;;;;19.67;9.20;;;;;;;0.61;100.00;102074.47;5069730;28;20040;-80
2023/01/21 10:00:57;;;;;;;12.53;7.00;;;;;;;0.66;100.00;102076.41;5040703;28;20063;-80
2023/01/21 10:04:05;;;;;;;14.80;7.60;;;;;;;0.71;100.00;102080.13;5036849;28;20053;-81
2023/01/21 10:06:37;;;;;;;18.43;7.90;;;;;;;0.80;100.00;102071.81;5053752;28;20045;-81
2023/01/21 10:09:26;;;;;;;18.00;8.07;;;;;;;0.76;100.00;102070.81;5055367;28;20037;-81
2023/01/21 10:12:11;;;;;;;14.80;8.03;;;;;;;0.75;100.00;102076.81;5045251;28;20044;-81
2023/01/21 10:14:47;;;;;;;17.60;8.77;;;;;;;0.75;100.00;102071.59;5075626;28;20041;-82
2023/01/21 10:17:32;;;;;;;16.27;8.77;;;;;;;0.87;100.00;102066.03;5070104;28;20087;-82
2023/01/21 10:20:10;;;;;;;18.10;8.90;;;;;;;0.90;100.00;102058.34;5074995;28;20037;-82
2023/01/21 10:22:41;;;;;;;17.07;9.00;;;;;;;0.95;100.00;102056.84;5021258;28;20036;-81
2023/01/21 10:25:19;;;;;;;14.80;7.97;;;;;;;1.10;100.00;102060.06;5056183;28;20071;-81
2023/01/21 10:27:45;;;;;;;15.17;7.77;;;;;;;1.05;100.00;102058.09;5040909;28;20043;-81
2023/01/21 10:30:24;;;;;;;17.63;8.70;;;;;;;1.18;100.00;102064.66;5042658;28;20535;-81
2023/01/21 10:32:52;;;;;;;19.97;9.97;;;;;;;1.18;100.00;102055.16;5072802;28;20039;-80
2023/01/21 10:35:42;;;;;;;15.57;8.93;;;;;;;1.28;100.00;102056.41;5038875;28;20041;-81
2023/01/21 10:38:17;;;;;;;18.80;8.53;;;;;;;1.24;100.00;102052.78;5058864;28;20037;-81
2023/01/21 10:41:15;;;;;;;15.10;8.02;;;;;;;1.46;100.00;102043.22;5059484;28;20056;-81
2023/01/21 10:44:13;;;;;;;14.77;7.17;;;;;;;1.44;100.00;102035.34;5043237;28;20098;-80
2023/01/21 10:47:00;;;;;;;12.47;6.77;;;;;;;1.48;100.00;102038.97;5058739;28;20569;-80
2023/01/21 10:49:27;;;;;;;13.73;8.17;;;;;;;1.34;100.00;102034.09;5075919;28;20098;-80
2023/01/21 10:52:12;;;;;;;14.20;7.07;;;;;;;1.61;100.00;102036.88;5076903;28;20093;-80
2023/01/21 10:54:47;;;;;;;13.80;7.03;;;;;;;1.60;100.00;102036.84;5046817;28;20047;-80
2023/01/21 10:57:13;;;;;;;14.15;8.43;;;;;;;1.73;100.00;102036.44;5060224;28;20049;-80
2023/01/21 10:59:41;;;;;;;14.63;8.37;;;;;;;1.75;100.00;102036.50;5042630;28;20051;-80
2023/01/21 11:02:07;;;;;;;13.33;7.70;;;;;;;1.81;100.00;102031.53;5074686;28;20162;-80
2023/01/21 11:04:39;;;;;;;12.30;6.73;;;;;;;1.72;100.00;102031.19;5075879;28;20671;-80
2023/01/21 11:07:12;;;;;;;16.00;6.80;;;;;;;1.97;100.00;102034.75;5057337;28;20044;-80
2023/01/21 11:09:44;;;;;;;12.60;6.83;;;;;;;1.89;100.00;102025.75;5039803;28;20040;-80
2023/01/21 11:12:16;;;;;;;13.27;7.07;;;;;;;2.09;100.00;102028.19;5043591;28;20098;-80
2023/01/21 11:14:47;;;;;;;13.50;7.60;;;;;;;1.94;100.00;102034.66;5067161;28;20104;-80
2023/01/21 11:17:29;;;;;;;17.03;8.03;;;;;;;2.02;100.00;102032.31;5070594;28;20053;-80
2023/01/21 11:20:00;;;;;;;12.53;6.20;;;;;;;2.12;100.00;102031.81;5066710;28;20033;-80
2023/01/21 11:22:31;;;;;;;12.17;6.50;;;;;;;2.24;100.00;102014.00;5052424;28;20075;-80
2023/01/21 11:24:59;;;;;;;12.17;6.23;;;;;;;2.12;100.00;102021.41;5072049;28;20036;-80
2023/01/21 11:27:27;;;;;;;13.47;7.07;;;;;;;2.10;100.00;102016.94;5064393;28;20064;-79
2023/01/21 11:29:53;;;;;;;11.93;6.83;;;;;;;2.33;100.00;102013.41;5058008;28;20448;-79